createdAt,value
2017-08-04T07:51:55.470Z,56.40
2017-08-04T07:54:43.122Z,56.70
2017-08-04T07:57:11.902Z,56.20
2017-08-04T07:59:39.617Z,56.90
2017-08-04T08:02:07.346Z,57.60
2017-08-04T08:04:35.049Z,57.40
2017-08-04T08:07:02.789Z,57.60
2017-08-04T08:09:30.890Z,57.90
2017-08-04T08:11:58.620Z,58.10
2017-08-04T08:14:26.342Z,57.20
2017-08-04T08:16:54.815Z,57.10
2017-08-04T08:19:22.517Z,57.80
2017-08-04T08:21:50.251Z,58.90
2017-08-04T08:24:17.969Z,59.20
2017-08-04T08:26:46.984Z,58.50
2017-08-04T08:29:14.714Z,59.00
2017-08-04T08:31:42.451Z,58.10
2017-08-04T08:34:10.147Z,59.30
2017-08-04T08:36:39.138Z,58.80
2017-08-04T08:39:06.830Z,59.10
2017-08-04T08:41:34.530Z,58.60
2017-08-04T08:44:02.230Z,58.60
2017-08-04T08:46:31.226Z,59.30
2017-08-04T08:48:58.926Z,59.20
2017-08-04T08:51:27.391Z,60.00
2017-08-04T08:53:55.195Z,60.00
2017-08-04T08:56:24.083Z,58.50
2017-08-04T08:58:51.789Z,59.20
2017-08-04T09:01:19.497Z,59.70
2017-08-04T09:03:47.215Z,60.20
2017-08-04T09:06:16.221Z,59.80
2017-08-04T09:08:43.930Z,59.60
2017-08-04T09:11:11.626Z,59.60
2017-08-04T09:13:39.334Z,59.20
2017-08-04T09:16:07.038Z,59.20
2017-08-04T09:18:34.738Z,59.50
2017-08-04T09:21:02.455Z,58.60
2017-08-04T09:23:30.449Z,59.30
2017-08-04T09:25:59.581Z,58.90
2017-08-04T09:28:27.370Z,59.70
2017-08-04T09:30:55.078Z,58.90
2017-08-04T09:33:23.014Z,59.60
2017-08-04T09:35:50.705Z,58.40
2017-08-04T09:38:18.425Z,58.00
2017-08-04T09:40:46.156Z,57.40
2017-08-04T09:43:14.955Z,57.80
2017-08-04T09:45:43.477Z,58.60
2017-08-04T09:48:11.191Z,58.20
2017-08-04T09:50:39.674Z,59.30
2017-08-04T09:53:07.788Z,58.50
2017-08-04T09:55:35.513Z,58.20
2017-08-04T09:58:03.242Z,58.00
2017-08-04T10:00:30.947Z,58.40
2017-08-04T10:02:59.444Z,57.80
2017-08-04T10:09:59.314Z,60.70
2017-08-04T10:12:27.046Z,59.80
2017-08-04T10:14:54.838Z,58.30
2017-08-04T10:17:23.235Z,55.40
2017-08-04T10:19:50.962Z,54.00
2017-08-04T10:22:18.674Z,52.50
2017-08-04T10:24:46.497Z,51.70
2017-08-04T10:27:15.123Z,50.40
2017-08-04T10:29:42.887Z,49.50
2017-08-04T10:32:10.646Z,48.80
2017-08-04T10:34:38.372Z,48.30
2017-08-04T10:37:06.079Z,47.60
2017-08-04T10:39:33.810Z,46.90
2017-08-04T10:42:01.575Z,46.70
2017-08-04T10:44:30.428Z,45.90
2017-08-04T10:46:58.175Z,45.30
2017-08-04T10:49:26.676Z,44.90
2017-08-04T10:51:54.414Z,44.70
2017-08-04T10:54:22.346Z,44.60
2017-08-04T10:56:53.554Z,43.00
2017-08-04T10:59:21.354Z,43.10
2017-08-04T11:01:49.095Z,43.60
2017-08-04T11:04:16.812Z,42.80
2017-08-04T11:06:44.538Z,42.60
2017-08-04T11:09:12.265Z,42.60
2017-08-04T11:11:40.014Z,42.80
2017-08-04T11:14:08.581Z,42.50
2017-08-04T11:16:37.238Z,42.40
2017-08-04T11:19:04.987Z,42.00
2017-08-04T11:21:32.851Z,41.00
2017-08-04T11:24:02.727Z,41.10
2017-08-04T11:26:30.466Z,40.00
2017-08-04T11:29:00.078Z,40.30
2017-08-04T11:31:27.834Z,40.60
2017-08-04T11:33:56.629Z,41.00
2017-08-04T11:36:24.418Z,40.60
2017-08-04T11:38:54.450Z,39.90
2017-08-04T11:41:22.258Z,39.90
2017-08-04T11:43:49.983Z,39.50
2017-08-04T11:46:17.710Z,39.20
2017-08-04T11:48:45.536Z,39.70
2017-08-04T11:51:13.275Z,39.10
2017-08-04T11:55:42.682Z,38.20
2017-08-04T11:58:10.419Z,40.90
2017-08-04T12:00:39.884Z,42.00
2017-08-04T12:03:07.608Z,43.00
2017-08-04T12:05:39.759Z,43.70
2017-08-04T12:08:07.509Z,44.30
2017-08-04T12:10:35.235Z,47.10
2017-08-04T12:13:02.968Z,44.80
2017-08-04T12:15:30.703Z,44.70
2017-08-04T12:17:58.449Z,44.90
2017-08-04T12:20:26.174Z,47.10
2017-08-04T12:23:07.707Z,43.90
2017-08-04T12:25:35.439Z,44.60
2017-08-04T12:28:03.184Z,45.30
2017-08-04T12:30:30.955Z,46.20
2017-08-04T12:32:58.744Z,45.90
2017-08-04T12:35:26.472Z,45.00
2017-08-04T12:37:54.188Z,45.00
2017-08-04T12:40:23.027Z,45.50
2017-08-04T12:42:50.783Z,45.00
2017-08-04T12:45:18.550Z,44.30
2017-08-04T12:47:46.275Z,44.40
2017-08-04T12:50:15.059Z,45.80
2017-08-04T12:52:42.814Z,44.00
2017-08-04T12:55:10.548Z,42.50
2017-08-04T12:57:38.275Z,42.90
2017-08-04T13:00:07.001Z,43.40
2017-08-04T13:02:34.749Z,44.30
2017-08-04T13:05:02.478Z,44.90
2017-08-04T13:07:30.199Z,45.40
2017-08-04T13:09:59.075Z,46.50
2017-08-04T13:12:26.818Z,47.30
2017-08-04T13:14:54.544Z,47.20
2017-08-04T13:17:22.279Z,46.40
2017-08-04T13:19:50.007Z,47.40
2017-08-04T13:22:17.755Z,46.50
2017-08-04T13:24:45.484Z,45.90
2017-08-04T13:27:13.211Z,47.20
2017-08-04T13:29:41.961Z,48.30
2017-08-04T13:32:09.727Z,46.80
2017-08-04T13:34:37.478Z,46.00
2017-08-04T13:37:05.214Z,46.50
2017-08-04T13:39:32.926Z,44.90
2017-08-04T13:42:00.655Z,45.00
2017-08-04T13:44:28.373Z,45.00
2017-08-04T13:46:56.192Z,45.30
2017-08-04T13:49:23.947Z,45.40
2017-08-04T13:51:51.654Z,45.30
2017-08-04T13:54:19.383Z,46.10
2017-08-04T13:56:47.102Z,46.40
2017-08-04T13:59:14.834Z,46.00
2017-08-04T14:01:42.577Z,46.20
2017-08-04T14:04:10.308Z,44.70
2017-08-04T14:06:38.052Z,44.10
2017-08-04T14:09:06.943Z,41.90
2017-08-04T14:11:34.688Z,43.00
2017-08-04T14:14:02.422Z,42.40
2017-08-04T14:16:30.551Z,42.50
2017-08-04T14:18:58.319Z,40.90
2017-08-04T14:21:27.712Z,43.70
2017-08-04T14:23:55.471Z,43.00
2017-08-04T14:26:23.233Z,43.50
2017-08-04T14:28:51.309Z,44.20
2017-08-04T14:31:19.151Z,43.50
2017-08-04T14:33:47.730Z,44.50
2017-08-04T14:36:15.486Z,44.40
2017-08-04T14:38:43.285Z,44.40
2017-08-04T14:41:11.037Z,43.80
2017-08-04T14:43:38.789Z,44.10
2017-08-04T14:46:06.511Z,45.30
2017-08-04T14:48:34.250Z,44.80
2017-08-04T14:51:02.093Z,44.00
2017-08-04T14:53:30.413Z,44.40
2017-08-04T14:55:58.153Z,44.60
2017-08-04T14:58:25.939Z,46.10
2017-08-04T15:00:53.654Z,46.20
2017-08-04T15:03:21.415Z,46.60
2017-08-04T15:05:49.169Z,47.20
2017-08-04T15:08:16.894Z,47.60
2017-08-04T15:10:45.728Z,47.00
2017-08-04T15:13:13.495Z,47.80
2017-08-04T15:15:41.338Z,46.60
2017-08-04T15:18:09.075Z,47.40
2017-08-04T15:20:36.822Z,47.70
2017-08-04T15:23:05.310Z,48.10
2017-08-04T15:25:33.014Z,47.40
2017-08-04T15:28:00.736Z,48.40
2017-08-04T15:30:29.255Z,47.60
2017-08-04T15:32:57.040Z,47.50
2017-08-04T15:35:24.776Z,47.80
2017-08-04T15:37:52.558Z,48.30
2017-08-04T15:40:20.303Z,48.50
2017-08-04T15:42:48.029Z,48.90
2017-08-04T15:45:15.771Z,49.20
2017-08-04T15:47:44.354Z,49.10
2017-08-04T15:50:12.085Z,49.20
2017-08-04T15:52:40.160Z,49.70
2017-08-04T15:55:07.899Z,50.50
2017-08-04T15:57:36.003Z,51.00
2017-08-04T16:00:04.218Z,51.50
2017-08-04T16:02:33.281Z,52.00
2017-08-04T16:05:01.050Z,52.00
2017-08-04T16:07:28.807Z,51.60
2017-08-04T16:09:59.207Z,51.50
2017-08-04T16:12:27.327Z,51.60
2017-08-04T16:14:55.496Z,51.80
2017-08-04T16:17:23.255Z,52.10
2017-08-04T16:19:51.088Z,52.30
2017-08-04T16:22:19.204Z,52.20
2017-08-04T16:24:47.798Z,52.50
2017-08-04T16:27:15.664Z,52.50
2017-08-04T16:29:43.401Z,53.50
2017-08-04T16:32:11.538Z,52.80
2017-08-04T16:34:39.371Z,53.10
2017-08-04T16:37:07.901Z,52.10
2017-08-04T16:39:35.638Z,52.10
2017-08-04T16:42:03.395Z,50.90
2017-08-04T16:44:31.426Z,50.70
2017-08-04T16:47:01.180Z,50.30
2017-08-04T16:49:29.215Z,51.30
2017-08-04T16:51:57.965Z,50.20
2017-08-04T16:54:26.147Z,51.10
2017-08-04T16:56:54.296Z,50.10
2017-08-04T16:59:22.072Z,49.70
2017-08-04T17:01:49.995Z,50.90
2017-08-04T17:04:17.767Z,50.80
2017-08-04T17:06:48.977Z,50.80
2017-08-04T17:09:16.747Z,50.60
2017-08-04T17:11:44.533Z,50.90
2017-08-04T17:14:13.570Z,51.50
2017-08-04T17:16:42.463Z,52.30
2017-08-04T17:19:10.248Z,52.20
2017-08-04T17:21:38.282Z,52.00
2017-08-04T17:24:06.092Z,52.00
2017-08-04T17:26:33.865Z,52.90
2017-08-04T17:29:02.188Z,52.50
2017-08-04T17:31:30.371Z,53.30
2017-08-04T17:33:58.148Z,53.20
2017-08-04T17:36:25.887Z,52.50
2017-08-04T17:38:53.634Z,52.00
2017-08-04T17:41:22.131Z,53.10
2017-08-04T17:43:50.200Z,53.00
2017-08-04T17:46:18.390Z,52.80
2017-08-04T17:48:46.147Z,52.80
2017-08-04T17:51:16.258Z,53.20
2017-08-04T17:53:44.331Z,53.40
2017-08-04T17:56:12.215Z,54.30
2017-08-04T17:58:40.257Z,54.40
2017-08-04T18:01:08.090Z,54.60
2017-08-04T18:03:36.689Z,55.80
2017-08-04T18:06:05.442Z,55.30
2017-08-04T18:08:33.266Z,56.30
2017-08-04T18:11:01.283Z,56.80
2017-08-04T18:13:29.131Z,56.70
2017-08-04T18:15:56.871Z,56.40
2017-08-04T18:18:24.674Z,56.30
2017-08-04T18:20:52.534Z,55.90
2017-08-04T18:23:20.646Z,54.80
2017-08-04T18:25:49.822Z,55.00
2017-08-04T18:28:17.658Z,55.00
2017-08-04T18:30:45.490Z,54.80
2017-08-04T18:33:13.465Z,54.30
2017-08-04T18:35:41.286Z,54.50
2017-08-04T18:38:09.065Z,55.00
2017-08-04T18:40:36.801Z,55.30
2017-08-04T18:43:04.775Z,56.20
2017-08-04T18:45:32.708Z,56.70
2017-08-04T18:48:00.528Z,57.50
2017-08-04T18:50:28.443Z,57.80
2017-08-04T18:52:56.516Z,58.00
2017-08-04T18:55:25.291Z,58.00
2017-08-04T18:57:53.414Z,57.50
2017-08-04T19:00:21.171Z,57.60
2017-08-04T19:02:49.867Z,57.50
2017-08-04T19:05:17.695Z,58.10
2017-08-04T19:07:45.492Z,58.10
2017-08-04T19:10:13.468Z,58.40
2017-08-04T19:12:41.432Z,59.50
2017-08-04T19:15:09.434Z,59.00
2017-08-04T19:17:37.173Z,60.10
2017-08-04T19:20:05.184Z,59.70
2017-08-04T19:22:32.961Z,60.70
2017-08-04T19:25:00.811Z,58.80
2017-08-04T19:27:28.785Z,58.50
2017-08-04T19:29:56.628Z,59.30
2017-08-04T19:32:24.360Z,58.20
2017-08-04T19:34:52.127Z,58.10
2017-08-04T19:37:19.950Z,57.40
2017-08-04T19:39:47.665Z,57.60
2017-08-04T19:42:15.379Z,57.80
2017-08-04T19:44:43.087Z,57.70
2017-08-04T19:47:10.819Z,57.50
2017-08-04T19:49:38.543Z,57.80
2017-08-04T19:52:06.260Z,57.70
2017-08-04T19:54:34.007Z,57.80
2017-08-04T19:57:02.331Z,57.50
2017-08-04T19:59:30.956Z,56.70
2017-08-04T20:01:58.691Z,56.70
2017-08-04T20:04:27.240Z,56.80
2017-08-04T20:06:55.707Z,56.80
2017-08-04T20:09:23.468Z,57.20
2017-08-04T20:11:51.201Z,56.80
2017-08-04T20:14:18.924Z,56.60
2017-08-04T20:16:47.615Z,56.50
2017-08-04T20:19:15.336Z,56.90
2017-08-04T20:21:43.055Z,56.60
2017-08-04T20:24:12.449Z,57.30
2017-08-04T20:26:42.144Z,59.30
2017-08-04T20:29:10.251Z,58.70
2017-08-04T20:31:38.425Z,57.80
2017-08-04T20:34:06.559Z,58.80
2017-08-04T20:36:35.086Z,57.50
2017-08-04T20:39:02.849Z,57.50
2017-08-04T20:41:30.583Z,57.70
2017-08-04T20:43:58.322Z,58.00
2017-08-04T20:46:26.170Z,58.10
2017-08-04T20:48:53.979Z,58.40
2017-08-04T20:51:21.694Z,58.40
2017-08-04T20:53:49.417Z,58.60
2017-08-04T20:56:17.294Z,58.90
2017-08-04T20:58:45.012Z,59.00
2017-08-04T21:01:12.730Z,59.00
2017-08-04T21:03:40.470Z,58.40
2017-08-04T21:06:08.993Z,57.70
2017-08-04T21:08:36.748Z,57.70
2017-08-04T21:11:04.494Z,57.60
2017-08-04T21:13:32.258Z,57.40
2017-08-04T21:16:01.260Z,57.30
2017-08-04T21:18:28.976Z,56.00
2017-08-04T21:20:56.719Z,56.10
2017-08-04T21:23:24.446Z,56.40
2017-08-04T21:25:52.185Z,56.30
2017-08-04T21:28:19.922Z,56.20
2017-08-04T21:30:47.634Z,59.80
2017-08-04T21:33:15.398Z,61.80
2017-08-04T21:35:43.152Z,62.80
2017-08-04T21:38:10.883Z,64.20
2017-08-04T21:40:38.614Z,64.80
2017-08-04T21:43:06.670Z,64.80
2017-08-04T21:45:34.390Z,64.90
2017-08-04T21:48:02.113Z,63.50
2017-08-04T21:50:29.829Z,64.30
2017-08-04T21:52:58.994Z,64.60
2017-08-04T21:55:26.718Z,65.90
2017-08-04T21:57:54.452Z,64.50
2017-08-04T22:00:22.214Z,65.10
2017-08-04T22:02:50.086Z,65.80
2017-08-04T22:05:18.079Z,66.40
2017-08-04T22:07:45.863Z,66.00
2017-08-04T22:10:13.589Z,66.00
2017-08-04T22:12:41.523Z,65.40
2017-08-04T22:15:09.251Z,65.70
2017-08-04T22:17:37.258Z,66.00
2017-08-04T22:20:04.996Z,65.90
2017-08-04T22:22:32.753Z,66.90
2017-08-04T22:25:00.472Z,67.50
2017-08-04T22:27:28.216Z,67.60
2017-08-04T22:29:56.222Z,67.30
2017-08-04T22:32:23.967Z,67.40
2017-08-04T22:34:51.690Z,67.20
2017-08-04T22:37:20.715Z,67.30
2017-08-04T22:39:48.468Z,67.60
2017-08-04T22:42:16.212Z,67.40
2017-08-04T22:44:43.999Z,67.60
2017-08-04T22:47:11.774Z,68.20
2017-08-04T22:49:39.505Z,68.10
2017-08-04T22:52:07.245Z,68.20
2017-08-04T22:54:34.979Z,68.50
2017-08-04T22:57:03.544Z,68.50
2017-08-04T22:59:31.264Z,68.50
2017-08-04T23:01:58.975Z,68.60
2017-08-04T23:04:26.694Z,68.40
2017-08-04T23:06:54.408Z,68.60
2017-08-04T23:09:23.067Z,68.60
2017-08-04T23:11:50.795Z,68.40
2017-08-04T23:14:18.514Z,68.00
2017-08-04T23:16:47.003Z,68.00
2017-08-04T23:19:14.723Z,68.00
2017-08-04T23:21:42.458Z,68.20
2017-08-04T23:24:10.187Z,68.70
2017-08-04T23:26:38.675Z,67.90
2017-08-04T23:29:06.418Z,67.90
2017-08-04T23:31:34.148Z,67.90
2017-08-04T23:34:01.894Z,67.70
2017-08-04T23:36:29.637Z,67.80
2017-08-04T23:38:57.360Z,67.90
2017-08-04T23:41:25.863Z,68.30
2017-08-04T23:43:53.590Z,68.10
2017-08-04T23:46:21.314Z,68.10
2017-08-04T23:48:49.030Z,68.60
2017-08-04T23:51:16.767Z,68.00
2017-08-04T23:53:44.524Z,68.30
2017-08-04T23:56:12.243Z,68.80
2017-08-04T23:58:40.762Z,68.90
